Time;durP1;ratioP1;P1;durP2;ratioP2;P2;SDS_P1;SDS_P2;PMS_P1;PMS_P2;Temp;Humidity;BMP_temperature;BMP_pressure;BME280_temperature;BME280_humidity;BME280_pressure;Samples;Min_cycle;Max_cycle;Signal;HPM_P1;HPM_P2
2021/09/27 00:00:34;;;;;;;3.02;2.10;;;;;;;9.31;74.44;101150.03;1860315;77;21476;-73
2021/09/27 00:03:00;;;;;;;4.70;2.30;;;;;;;9.28;74.45;101152.33;1848775;77;20963;-72
2021/09/27 00:05:28;;;;;;;5.50;2.42;;;;;;;9.23;74.55;101144.32;1860317;76;21357;-73
2021/09/27 00:07:54;;;;;;;5.65;2.52;;;;;;;9.19;74.63;101146.69;1859842;77;20934;-72
2021/09/27 00:10:29;;;;;;;4.47;2.10;;;;;;;9.18;74.75;101156.74;1860393;76;21413;-73
2021/09/27 00:12:56;;;;;;;7.30;2.50;;;;;;;9.15;74.80;101151.20;1859940;77;21730;-73
2021/09/27 00:15:28;;;;;;;5.05;2.90;;;;;;;9.16;74.83;101152.04;1860009;76;20824;-75
2021/09/27 00:17:55;;;;;;;4.42;2.83;;;;;;;9.13;74.78;101149.95;1859122;77;20867;-75
2021/09/27 00:20:22;;;;;;;6.70;2.90;;;;;;;9.12;74.92;101152.19;1859990;77;20950;-75
2021/09/27 00:22:50;;;;;;;3.15;2.52;;;;;;;9.11;74.95;101153.56;1859826;77;20939;-74
2021/09/27 00:25:19;;;;;;;5.83;2.65;;;;;;;9.10;74.99;101150.56;1860032;77;22110;-74
2021/09/27 00:27:46;;;;;;;3.50;2.87;;;;;;;9.09;75.12;101149.72;1859803;77;21001;-74
2021/09/27 00:30:14;;;;;;;5.65;3.65;;;;;;;9.07;75.17;101151.56;1860138;77;20891;-72
2021/09/27 00:32:41;;;;;;;4.60;3.15;;;;;;;9.05;75.12;101153.86;1859682;77;20879;-72
2021/09/27 00:35:08;;;;;;;3.80;2.87;;;;;;;9.03;75.16;101151.77;1859838;77;20970;-73
2021/09/27 00:37:35;;;;;;;3.55;3.25;;;;;;;9.01;75.32;101153.60;1860039;77;21477;-71
2021/09/27 00:40:05;;;;;;;3.83;2.25;;;;;;;8.98;75.32;101151.10;1859818;77;20887;-72
2021/09/27 00:42:32;;;;;;;5.47;2.92;;;;;;;8.96;75.44;101148.58;1860503;77;20943;-70
2021/09/27 00:44:59;;;;;;;5.95;3.20;;;;;;;8.95;75.55;101158.63;1860483;77;21359;-71
2021/09/27 00:47:26;;;;;;;3.50;2.58;;;;;;;8.93;75.69;101149.54;1862770;76;20903;-73
2021/09/27 00:49:55;;;;;;;3.10;2.37;;;;;;;8.93;75.77;101152.62;1860385;77;21480;-74
2021/09/27 00:52:22;;;;;;;3.22;3.02;;;;;;;8.91;75.80;101157.06;1859254;76;20947;-72
2021/09/27 00:54:49;;;;;;;5.90;4.22;;;;;;;8.89;75.89;101159.77;1859943;77;20997;-72
2021/09/27 00:57:22;;;;;;;5.35;2.77;;;;;;;8.88;75.96;101163.75;1860661;76;21357;-72
2021/09/27 00:59:53;;;;;;;5.65;2.70;;;;;;;8.86;75.91;101161.20;1863000;77;20824;-72
2021/09/27 01:02:20;;;;;;;6.85;4.10;;;;;;;8.84;75.94;101164.34;1862926;77;21127;-71
2021/09/27 01:04:47;;;;;;;5.95;2.77;;;;;;;8.82;76.12;101162.71;1863225;77;20872;-72
2021/09/27 01:08:12;;;;;;;5.92;3.72;;;;;;;8.80;76.20;101164.08;1862768;77;21431;-72
2021/09/27 01:11:11;;;;;;;3.62;3.22;;;;;;;8.80;76.20;101160.62;1863312;77;21483;-72
2021/09/27 01:13:52;;;;;;;8.28;4.58;;;;;;;8.77;76.39;101163.38;1791328;79;20859;-71
2021/09/27 01:16:24;;;;;;;6.53;3.25;;;;;;;8.76;76.42;101161.66;1753686;81;21682;-71
2021/09/27 01:19:19;;;;;;;3.92;3.20;;;;;;;8.75;76.51;101174.36;1791240;80;21369;-71
2021/09/27 01:22:00;;;;;;;12.15;4.50;;;;;;;8.75;76.61;101171.28;1771173;79;20953;-73
2021/09/27 01:24:47;;;;;;;4.72;3.45;;;;;;;8.76;76.68;101169.08;1753559;80;21466;-72
2021/09/27 01:27:57;;;;;;;3.80;2.72;;;;;;;8.75;76.70;101172.59;1791679;80;21468;-73
2021/09/27 01:31:03;;;;;;;4.03;3.35;;;;;;;8.75;76.67;101173.05;1753660;80;21616;-74
2021/09/27 01:34:11;;;;;;;10.38;4.12;;;;;;;8.73;76.73;101174.42;1791544;80;20949;-72
2021/09/27 01:36:55;;;;;;;7.50;3.65;;;;;;;8.72;77.00;101174.04;1753614;80;20915;-72
2021/09/27 01:39:45;;;;;;;21.75;9.08;;;;;;;8.73;76.96;101177.50;1791443;79;20918;-72
2021/09/27 01:42:39;;;;;;;25.62;12.10;;;;;;;8.73;77.00;101177.03;1753750;81;20998;-72
2021/09/27 01:45:12;;;;;;;16.00;6.70;;;;;;;8.71;76.99;101187.58;1753602;80;21142;-73
2021/09/27 01:47:50;;;;;;;4.12;3.42;;;;;;;8.68;77.04;101189.47;1820215;77;20910;-72
2021/09/27 01:50:27;;;;;;;8.23;4.47;;;;;;;8.65;77.22;101193.06;1863489;77;21353;-73
2021/09/27 01:53:01;;;;;;;5.62;3.20;;;;;;;8.66;77.26;101189.98;1862294;77;20895;-72
2021/09/27 01:55:35;;;;;;;5.78;4.20;;;;;;;8.65;77.37;101190.45;1863398;77;20871;-72
2021/09/27 01:58:19;;;;;;;7.03;3.52;;;;;;;8.66;77.36;101199.98;1862640;77;21132;-72
2021/09/27 02:00:55;;;;;;;5.30;2.80;;;;;;;8.67;77.37;101199.52;1863329;77;21383;-72
2021/09/27 02:03:50;;;;;;;5.67;3.95;;;;;;;8.66;77.41;101205.20;1863013;77;20950;-71
2021/09/27 02:06:31;;;;;;;8.48;3.45;;;;;;;8.64;77.34;101198.34;1862895;77;20926;-72
2021/09/27 02:09:09;;;;;;;3.50;2.77;;;;;;;8.62;77.38;101194.95;1862421;76;20910;-72
2021/09/27 02:11:39;;;;;;;5.45;4.75;;;;;;;8.59;77.45;101207.70;1861937;77;21199;-72
2021/09/27 02:14:19;;;;;;;9.23;3.30;;;;;;;8.55;77.37;101204.81;1863182;77;20906;-71
2021/09/27 02:17:00;;;;;;;8.30;3.60;;;;;;;8.51;77.51;101211.08;1863013;77;20843;-73
2021/09/27 02:19:35;;;;;;;3.58;3.22;;;;;;;8.46;77.60;101214.35;1863218;77;21009;-73
2021/09/27 02:22:31;;;;;;;4.90;3.50;;;;;;;8.41;77.85;101215.85;1828994;76;20966;-73
2021/09/27 02:25:13;;;;;;;5.40;2.98;;;;;;;8.40;78.06;101215.44;1765387;80;21508;-73
2021/09/27 02:27:39;;;;;;;6.78;3.37;;;;;;;8.42;78.33;101212.31;1753844;81;20871;-73
2021/09/27 02:30:08;;;;;;;3.90;3.60;;;;;;;8.44;78.28;101213.56;1791494;79;20993;-73
2021/09/27 02:32:46;;;;;;;4.90;3.58;;;;;;;8.44;78.33;101217.02;1753592;80;21527;-73
2021/09/27 02:35:27;;;;;;;25.55;14.45;;;;;;;8.46;78.26;101225.65;1791780;80;20958;-74
2021/09/27 02:38:14;;;;;;;4.28;2.85;;;;;;;8.47;78.25;101219.95;1791411;80;21118;-73
2021/09/27 02:41:02;;;;;;;5.83;3.65;;;;;;;8.46;78.24;101216.50;1753875;80;20982;-73
2021/09/27 02:43:30;;;;;;;12.80;8.18;;;;;;;8.46;78.25;101228.27;1791436;80;20914;-73
2021/09/27 02:45:57;;;;;;;36.88;22.07;;;;;;;8.44;78.34;101223.55;1753444;80;21058;-73
2021/09/27 02:48:41;;;;;;;5.97;4.60;;;;;;;8.43;78.50;101227.09;1753827;80;20990;-73
2021/09/27 02:51:05;;;;;;;7.22;3.60;;;;;;;8.44;78.64;101229.25;1789702;79;21561;-74
2021/09/27 02:53:32;;;;;;;5.67;3.40;;;;;;;8.43;78.88;101224.48;1753728;80;20889;-71
2021/09/27 02:56:26;;;;;;;4.37;3.37;;;;;;;8.45;78.91;101232.27;1791459;80;20863;-72
2021/09/27 02:59:41;;;;;;;10.35;3.83;;;;;;;8.47;78.93;101236.95;1753249;80;20899;-72
2021/09/27 03:02:42;;;;;;;5.37;3.52;;;;;;;8.50;78.82;101225.08;1833481;77;20863;-72
2021/09/27 03:05:46;;;;;;;6.90;4.03;;;;;;;8.50;78.67;101226.39;1845548;77;22834;-72
2021/09/27 03:08:24;;;;;;;30.25;17.17;;;;;;;8.49;78.67;101228.59;1863072;77;20871;-72
2021/09/27 03:11:08;;;;;;;31.80;17.10;;;;;;;8.48;78.44;101232.13;1862000;77;20934;-73
2021/09/27 03:13:56;;;;;;;14.10;9.53;;;;;;;8.45;78.41;101230.50;1863253;77;20980;-72
2021/09/27 03:16:55;;;;;;;4.92;4.00;;;;;;;8.40;78.21;101236.78;1861685;77;20899;-72
2021/09/27 03:19:33;;;;;;;7.83;4.08;;;;;;;8.35;78.36;101234.36;1847173;77;22143;-71
2021/09/27 03:22:39;;;;;;;3.47;2.98;;;;;;;8.31;78.39;101234.08;1862827;77;20950;-71
2021/09/27 03:25:17;;;;;;;3.60;3.30;;;;;;;8.26;78.56;101231.66;1845881;77;21428;-72
2021/09/27 03:28:09;;;;;;;3.95;2.98;;;;;;;8.25;78.84;101239.12;1858807;77;20966;-72
2021/09/27 03:31:17;;;;;;;4.03;2.85;;;;;;;8.24;78.91;101238.70;1861934;77;21329;-72
2021/09/27 03:33:59;;;;;;;4.65;3.42;;;;;;;8.23;79.06;101238.80;1862762;77;21138;-74
2021/09/27 03:36:57;;;;;;;8.38;3.87;;;;;;;8.25;79.08;101241.73;1862889;77;20871;-72
2021/09/27 03:39:51;;;;;;;3.70;2.80;;;;;;;8.26;79.10;101240.80;1862837;77;20931;-72
2021/09/27 03:42:40;;;;;;;4.97;4.43;;;;;;;8.27;79.01;101244.27;1862467;77;20891;-71
2021/09/27 03:45:15;;;;;;;4.10;3.67;;;;;;;8.27;78.95;101250.36;1862917;77;20827;-73
2021/09/27 03:48:06;;;;;;;;;;;;;;;8.24;78.81;101243.94;1865747;77;21133;-71
2021/09/27 03:50:44;;;;;;;4.58;3.02;;;;;;;8.21;78.82;101259.75;1861074;76;20086;-73
2021/09/27 03:53:19;;;;;;;5.92;3.98;;;;;;;8.16;78.97;101255.17;1862924;77;20986;-74
2021/09/27 03:56:03;;;;;;;5.87;3.85;;;;;;;8.13;79.00;101254.42;1861527;77;21468;-73
2021/09/27 03:58:34;;;;;;;7.00;4.47;;;;;;;8.08;79.12;101255.45;1836114;77;21464;-74
2021/09/27 04:01:06;;;;;;;5.90;3.85;;;;;;;8.04;79.03;101264.78;1848891;77;21938;-73
2021/09/27 04:04:15;;;;;;;7.60;3.83;;;;;;;7.98;79.00;101276.77;1848745;77;21347;-72
2021/09/27 04:06:58;;;;;;;7.62;4.17;;;;;;;7.91;79.18;101265.70;1849013;77;20916;-72
2021/09/27 04:09:39;;;;;;;7.90;4.40;;;;;;;7.87;79.55;101270.21;1849058;76;20897;-71
2021/09/27 04:12:29;;;;;;;4.37;4.03;;;;;;;7.88;80.04;101272.36;1848586;77;20901;-72
2021/09/27 04:15:26;;;;;;;8.60;4.58;;;;;;;7.87;80.05;101279.34;1849760;77;21494;-70
2021/09/27 04:18:49;;;;;;;12.28;4.42;;;;;;;7.88;80.23;101270.59;1852562;77;20956;-70
2021/09/27 04:21:45;;;;;;;5.90;3.70;;;;;;;7.94;80.45;101263.42;1850248;77;21308;-70
2021/09/27 04:24:29;;;;;;;4.87;3.98;;;;;;;7.96;80.46;101272.05;1843700;77;20921;-71
2021/09/27 04:27:19;;;;;;;4.72;3.83;;;;;;;7.98;80.50;101273.72;1848604;77;21581;-71
2021/09/27 04:30:03;;;;;;;5.65;3.80;;;;;;;8.01;80.66;101278.81;1823543;77;21121;-71
2021/09/27 04:33:09;;;;;;;5.25;3.58;;;;;;;8.09;80.81;101276.77;1848993;77;20937;-71
2021/09/27 04:35:48;;;;;;;14.55;3.80;;;;;;;8.16;80.87;101276.50;1849353;77;20952;-72
2021/09/27 04:38:15;;;;;;;8.08;4.12;;;;;;;8.25;80.75;101282.23;1848478;77;20925;-72
2021/09/27 04:41:25;;;;;;;10.70;3.45;;;;;;;8.33;80.76;101281.07;1849097;77;21566;-73
2021/09/27 04:44:35;;;;;;;5.75;3.35;;;;;;;8.61;81.22;101281.69;1848732;77;21112;-73
2021/09/27 04:47:14;;;;;;;4.67;3.00;;;;;;;9.32;81.12;101276.91;1849429;76;20909;-73
2021/09/27 04:49:56;;;;;;;8.60;4.03;;;;;;;10.30;79.60;101280.73;1848855;77;20921;-72
2021/09/27 04:52:38;;;;;;;9.60;4.05;;;;;;;11.12;77.49;101278.00;1849139;77;20964;-74
2021/09/27 04:55:45;;;;;;;4.55;3.05;;;;;;;11.78;74.59;101270.09;1851069;76;20955;-73
2021/09/27 04:58:59;;;;;;;7.10;4.08;;;;;;;12.23;72.37;101275.06;1850840;77;21127;-75
2021/09/27 05:01:53;;;;;;;3.67;3.08;;;;;;;12.39;70.07;101280.30;1850618;76;20888;-73
2021/09/27 05:04:51;;;;;;;4.45;3.27;;;;;;;12.28;68.91;101281.37;1850603;76;21014;-72
2021/09/27 05:07:56;;;;;;;4.72;3.58;;;;;;;12.18;68.60;101273.17;1826656;76;21204;-72
2021/09/27 05:13:34;;;;;;;4.47;3.80;;;;;;;12.38;67.91;101268.53;1798593;79;22825;-71
2021/09/27 05:16:22;;;;;;;3.05;2.85;;;;;;;12.25;67.76;101268.41;1758551;81;21026;-72
2021/09/27 05:19:30;;;;;;;3.60;2.42;;;;;;;12.33;68.23;101264.02;1715086;82;21155;-72
2021/09/27 05:22:34;;;;;;;6.70;2.52;;;;;;;12.72;68.14;101263.98;1724575;81;20883;-71
2021/09/27 05:25:16;;;;;;;5.78;3.35;;;;;;;13.02;66.52;101267.40;1724869;83;21018;-71
2021/09/27 05:28:04;;;;;;;7.95;3.42;;;;;;;13.03;65.93;101273.53;1724722;81;20923;-70
2021/09/27 05:30:48;;;;;;;4.45;3.25;;;;;;;12.93;65.98;101275.85;1696175;84;20903;-71
2021/09/27 05:33:23;;;;;;;7.17;2.83;;;;;;;12.80;66.10;101270.94;1695714;83;21825;-72
2021/09/27 05:36:30;;;;;;;3.10;2.75;;;;;;;12.80;66.41;101266.98;1696170;84;20950;-72
2021/09/27 05:39:31;;;;;;;3.05;2.75;;;;;;;13.04;66.96;101269.47;1695100;84;20927;-71
2021/09/27 05:42:25;;;;;;;3.25;2.00;;;;;;;13.52;65.43;101267.08;1696021;84;22025;-73
2021/09/27 05:45:17;;;;;;;7.45;2.90;;;;;;;14.30;64.92;101268.72;1695666;84;21500;-71
2021/09/27 05:47:54;;;;;;;5.28;2.33;;;;;;;15.29;62.57;101267.77;1695638;84;20915;-71
2021/09/27 05:50:50;;;;;;;6.28;2.30;;;;;;;16.28;59.87;101268.24;1695743;84;21420;-71
2021/09/27 05:53:27;;;;;;;4.08;1.85;;;;;;;17.10;57.63;101266.12;1695884;83;21006;-72
2021/09/27 05:56:34;;;;;;;4.03;2.17;;;;;;;17.95;55.18;101265.14;1695722;84;20939;-71
2021/09/27 05:59:20;;;;;;;3.25;2.00;;;;;;;18.61;53.34;101267.69;1695598;84;20864;-71
2021/09/27 06:02:02;;;;;;;2.27;1.50;;;;;;;19.34;51.06;101265.09;1695685;84;21926;-72
2021/09/27 06:05:00;;;;;;;4.30;1.75;;;;;;;19.77;49.49;101271.15;1695797;84;20887;-72
2021/09/27 06:07:54;;;;;;;2.67;1.60;;;;;;;20.24;48.58;101268.20;1691311;84;20935;-72
2021/09/27 06:10:45;;;;;;;1.42;1.32;;;;;;;20.60;46.08;101269.01;1695560;83;21010;-70
2021/09/27 06:13:32;;;;;;;1.60;1.37;;;;;;;20.64;45.12;101271.75;1689521;84;20903;-70
2021/09/27 06:16:08;;;;;;;2.45;1.60;;;;;;;20.66;44.98;101275.95;1687648;84;21576;-71
2021/09/27 06:19:06;;;;;;;2.90;1.40;;;;;;;20.82;44.49;101276.70;1688128;85;20858;-71
2021/09/27 06:21:43;;;;;;;1.52;1.45;;;;;;;21.01;43.71;101270.50;1688224;84;20959;-71
2021/09/27 06:24:42;;;;;;;2.87;1.40;;;;;;;21.21;43.33;101275.28;1687783;84;20940;-72
2021/09/27 06:27:20;;;;;;;1.92;1.17;;;;;;;21.33;42.45;101267.44;1687909;85;20955;-69
2021/09/27 06:30:05;;;;;;;2.12;1.30;;;;;;;21.25;41.94;101271.31;1722692;82;21537;-68
2021/09/27 06:32:56;;;;;;;1.65;1.55;;;;;;;21.35;42.41;101275.30;1722630;83;21034;-71
2021/09/27 06:35:27;;;;;;;1.65;1.55;;;;;;;21.63;41.42;101266.86;1722512;82;21022;-71
2021/09/27 06:37:54;;;;;;;1.35;1.25;;;;;;;21.99;40.71;101274.08;1722801;83;20932;-71
2021/09/27 06:40:22;;;;;;;1.25;1.25;;;;;;;22.34;40.22;101270.14;1722616;83;21528;-71
2021/09/27 06:42:49;;;;;;;3.77;1.45;;;;;;;22.50;39.63;101269.45;1722896;83;21118;-72
2021/09/27 06:45:16;;;;;;;3.47;1.50;;;;;;;22.65;38.94;101270.22;1722633;83;20983;-73
2021/09/27 06:47:42;;;;;;;1.40;1.25;;;;;;;22.86;38.44;101266.71;1722899;83;21003;-72
2021/09/27 06:50:10;;;;;;;4.10;1.25;;;;;;;23.20;38.44;101274.48;1722474;83;20892;-72
2021/09/27 06:52:38;;;;;;;1.20;1.07;;;;;;;23.67;37.82;101278.87;1722797;83;20924;-73
2021/09/27 06:55:07;;;;;;;2.52;1.02;;;;;;;24.09;37.24;101267.81;1722697;83;21124;-72
2021/09/27 06:57:34;;;;;;;1.05;0.80;;;;;;;24.41;36.28;101268.33;1722522;83;20913;-72
2021/09/27 07:00:01;;;;;;;1.00;0.80;;;;;;;24.55;34.82;101266.37;1722837;83;21390;-73
2021/09/27 07:02:28;;;;;;;1.55;1.12;;;;;;;24.49;34.77;101267.55;1722556;82;20940;-72
2021/09/27 07:04:55;;;;;;;2.92;0.82;;;;;;;24.32;34.14;101268.86;1722813;83;20936;-73
2021/09/27 07:07:22;;;;;;;2.55;1.17;;;;;;;24.22;34.68;101265.48;1687618;85;21595;-73
2021/09/27 07:09:49;;;;;;;3.65;1.47;;;;;;;24.23;34.83;101268.99;1687930;84;20928;-71
2021/09/27 07:12:16;;;;;;;2.77;0.80;;;;;;;24.22;35.29;101276.20;1685756;84;21441;-70
2021/09/27 07:14:43;;;;;;;0.47;0.47;;;;;;;24.28;34.61;101268.84;1680215;85;20900;-72
2021/09/27 07:17:09;;;;;;;1.15;0.60;;;;;;;24.35;34.44;101277.06;1680382;84;21392;-73
2021/09/27 07:19:36;;;;;;;2.77;0.93;;;;;;;24.44;34.18;101278.74;1680312;84;21501;-72
2021/09/27 07:22:03;;;;;;;1.98;0.80;;;;;;;24.52;34.08;101283.28;1680294;85;20947;-75
2021/09/27 07:24:30;;;;;;;1.02;0.82;;;;;;;24.61;33.81;101277.77;1680164;85;20864;-74
2021/09/27 07:26:57;;;;;;;1.00;0.70;;;;;;;24.41;33.66;101279.91;1680509;85;20912;-71
2021/09/27 07:29:25;;;;;;;1.32;0.88;;;;;;;24.24;33.98;101273.37;1680191;84;20932;-72
2021/09/27 07:31:53;;;;;;;3.70;1.05;;;;;;;24.42;34.85;101275.38;1680554;84;21262;-70
2021/09/27 07:34:21;;;;;;;1.27;1.00;;;;;;;24.79;34.40;101278.94;1680077;85;20932;-71
2021/09/27 07:36:48;;;;;;;1.35;1.00;;;;;;;24.49;33.78;101274.25;1680488;84;20911;-72
2021/09/27 07:39:18;;;;;;;0.98;0.98;;;;;;;24.05;33.85;101279.34;1680152;85;20971;-71
2021/09/27 07:41:45;;;;;;;2.42;1.12;;;;;;;23.72;34.88;101279.24;1680238;85;21421;-73
2021/09/27 07:44:12;;;;;;;2.15;0.80;;;;;;;23.67;34.74;101279.38;1681513;84;21278;-71
2021/09/27 07:46:39;;;;;;;0.85;0.85;;;;;;;23.58;34.77;101278.00;1683006;85;20968;-71
2021/09/27 07:49:06;;;;;;;1.45;1.20;;;;;;;23.59;35.08;101268.14;1682195;85;20971;-72
2021/09/27 07:51:33;;;;;;;2.05;0.88;;;;;;;23.87;35.07;101262.56;1681008;85;20999;-72
2021/09/27 07:54:00;;;;;;;1.47;0.70;;;;;;;24.05;34.79;101273.98;1680812;85;20914;-75
2021/09/27 07:56:27;;;;;;;1.25;0.72;;;;;;;24.45;35.09;101279.06;1680277;84;21173;-75
2021/09/27 07:58:54;;;;;;;2.05;0.90;;;;;;;24.72;34.36;101287.33;1680358;85;20951;-75
2021/09/27 08:01:21;;;;;;;2.92;0.88;;;;;;;24.80;34.32;101285.13;1680477;84;20964;-74
2021/09/27 08:03:48;;;;;;;1.32;0.70;;;;;;;24.91;34.02;101287.46;1680260;84;21357;-75
2021/09/27 08:06:15;;;;;;;2.58;0.62;;;;;;;24.80;33.56;101277.08;1680602;84;20967;-78
2021/09/27 08:08:42;;;;;;;0.53;0.53;;;;;;;24.80;33.49;101277.91;1680202;85;21022;-73
2021/09/27 08:11:09;;;;;;;1.00;0.70;;;;;;;24.67;33.46;101282.95;1680099;85;20896;-74
2021/09/27 08:13:37;;;;;;;0.80;0.80;;;;;;;24.68;33.81;101283.30;1680030;84;20991;-73
2021/09/27 08:16:05;;;;;;;2.27;0.37;;;;;;;24.69;33.70;101279.59;1680127;84;21417;-74
2021/09/27 08:18:32;;;;;;;0.50;0.40;;;;;;;24.41;33.34;101283.94;1681500;84;20987;-73
2021/09/27 08:21:09;;;;;;;1.35;0.60;;;;;;;23.87;33.76;101286.16;1680388;84;21579;-74
2021/09/27 08:23:36;;;;;;;2.25;1.10;;;;;;;23.58;34.63;101287.36;1680241;85;20960;-74
2021/09/27 08:26:03;;;;;;;1.67;0.40;;;;;;;23.71;34.63;101286.92;1680274;84;20932;-74
2021/09/27 08:28:30;;;;;;;0.47;0.47;;;;;;;23.86;34.40;101280.99;1680192;85;20956;-74
2021/09/27 08:31:01;;;;;;;0.70;0.50;;;;;;;24.13;34.00;101281.22;1680432;85;20903;-74
2021/09/27 08:33:28;;;;;;;0.30;0.30;;;;;;;24.11;33.90;101273.84;1680224;85;21074;-75
2021/09/27 08:35:57;;;;;;;1.05;0.40;;;;;;;24.07;34.15;101269.30;1680239;85;20948;-74
2021/09/27 08:38:24;;;;;;;0.40;0.40;;;;;;;24.08;33.89;101272.81;1680184;85;20940;-74
2021/09/27 08:41:21;;;;;;;0.47;0.35;;;;;;;23.85;33.22;101267.24;1680304;85;20916;-73
2021/09/27 08:44:34;;;;;;;2.00;0.42;;;;;;;23.63;33.45;101260.10;1680203;85;20864;-74
2021/09/27 08:47:31;;;;;;;0.98;0.42;;;;;;;23.61;33.57;101256.78;1680368;84;21241;-75
2021/09/27 08:50:06;;;;;;;0.20;0.20;;;;;;;23.75;32.75;101260.19;1680224;84;20895;-75
2021/09/27 08:52:39;;;;;;;0.68;0.35;;;;;;;23.91;33.08;101261.23;1680458;85;20920;-74
2021/09/27 08:55:10;;;;;;;0.33;0.20;;;;;;;24.22;33.48;101258.78;1682341;84;20979;-74
2021/09/27 08:57:48;;;;;;;0.30;0.30;;;;;;;24.42;33.17;101263.32;1680297;84;20936;-74
2021/09/27 09:00:43;;;;;;;0.60;0.20;;;;;;;24.83;32.24;101268.69;1680194;85;22008;-75
2021/09/27 09:03:43;;;;;;;0.13;0.13;;;;;;;24.97;31.02;101257.27;1677206;85;20861;-75
2021/09/27 09:06:19;;;;;;;2.05;1.57;;;;;;;25.28;31.17;101259.72;1679622;85;20891;-74
2021/09/27 09:09:04;;;;;;;0.40;0.13;;;;;;;25.52;30.91;101257.45;1680216;85;21559;-75
2021/09/27 09:11:42;;;;;;;0.40;0.30;;;;;;;25.53;30.36;101259.97;1680206;85;20904;-74
2021/09/27 09:14:25;;;;;;;2.42;0.37;;;;;;;25.58;29.42;101267.50;1680274;84;21354;-75
2021/09/27 09:16:54;;;;;;;0.75;0.33;;;;;;;25.59;30.08;101255.25;1714891;83;20980;-74
2021/09/27 09:19:26;;;;;;;0.10;0.00;;;;;;;25.97;29.79;101258.09;1714290;82;20938;-74
2021/09/27 09:22:06;;;;;;;0.10;0.10;;;;;;;26.14;27.18;101252.59;1714798;83;20976;-73
2021/09/27 09:24:38;;;;;;;0.17;0.17;;;;;;;25.99;27.25;101254.73;1714861;82;20936;-74
2021/09/27 09:27:09;;;;;;;1.98;0.20;;;;;;;26.02;27.84;101248.98;1728871;82;21129;-74
2021/09/27 09:29:39;;;;;;;0.33;0.10;;;;;;;25.94;27.72;101249.02;1715333;82;20983;-75
2021/09/27 09:32:25;;;;;;;1.05;0.20;;;;;;;25.78;27.48;101257.16;1714888;82;20984;-74
2021/09/27 09:35:25;;;;;;;1.30;0.30;;;;;;;25.39;27.91;101260.69;1714976;82;21387;-74
2021/09/27 09:38:08;;;;;;;0.47;0.30;;;;;;;25.07;28.53;101264.30;1714775;82;20969;-74
2021/09/27 09:40:44;;;;;;;1.17;0.10;;;;;;;25.14;29.04;101266.61;1714909;83;21222;-73
2021/09/27 09:43:27;;;;;;;0.10;0.10;;;;;;;25.38;28.72;101269.77;1680455;84;20947;-73
2021/09/27 09:46:14;;;;;;;0.10;0.10;;;;;;;25.43;28.69;101270.94;1666491;84;20967;-75
2021/09/27 09:49:10;;;;;;;0.80;0.23;;;;;;;24.87;28.62;101277.24;1680063;84;21528;-74
2021/09/27 09:51:41;;;;;;;0.82;0.10;;;;;;;24.13;29.86;101264.63;1680182;84;20888;-74
2021/09/27 09:54:21;;;;;;;0.57;0.57;;;;;;;23.59;30.32;101264.96;1680299;85;21505;-75
2021/09/27 09:57:06;;;;;;;0.85;0.30;;;;;;;23.14;31.32;101266.09;1680238;84;20912;-76
2021/09/27 09:59:37;;;;;;;0.10;0.10;;;;;;;22.94;31.21;101260.09;1680342;85;20967;-73
2021/09/27 10:02:09;;;;;;;0.95;0.13;;;;;;;22.73;31.42;101255.58;1680298;85;20940;-74
2021/09/27 10:04:41;;;;;;;0.10;0.10;;;;;;;22.60;32.18;101256.48;1679504;84;20841;-73
2021/09/27 10:07:16;;;;;;;2.45;0.62;;;;;;;22.44;32.54;101264.70;1680978;85;21065;-74
2021/09/27 10:09:59;;;;;;;1.62;0.33;;;;;;;22.00;32.83;101261.08;1680388;84;20968;-74
2021/09/27 10:12:51;;;;;;;0.20;0.20;;;;;;;21.52;34.13;101266.55;1715249;83;20900;-75
2021/09/27 10:15:41;;;;;;;0.53;0.40;;;;;;;21.14;34.95;101268.83;1714799;82;20994;-76
2021/09/27 10:18:31;;;;;;;0.72;0.30;;;;;;;20.99;35.40;101267.63;1714830;82;20949;-76
2021/09/27 10:21:17;;;;;;;0.28;0.10;;;;;;;20.81;35.81;101274.16;1715196;82;21307;-75
2021/09/27 10:23:49;;;;;;;0.45;0.23;;;;;;;20.61;36.18;101265.34;1714943;82;20996;-75
2021/09/27 10:26:33;;;;;;;4.53;0.35;;;;;;;20.41;36.57;101269.81;1714999;82;21445;-76
2021/09/27 10:29:12;;;;;;;0.60;0.20;;;;;;;20.19;37.19;101277.11;1714907;82;20940;-75
2021/09/27 10:31:42;;;;;;;0.10;0.10;;;;;;;19.83;37.30;101272.78;1714854;83;20928;-75
2021/09/27 10:34:17;;;;;;;0.20;0.00;;;;;;;19.56;37.63;101275.16;1715044;83;21124;-78
2021/09/27 10:36:56;;;;;;;0.35;0.10;;;;;;;19.11;37.86;101276.86;1714877;82;21449;-77
2021/09/27 10:39:24;;;;;;;0.68;0.20;;;;;;;18.69;39.05;101272.34;1715003;82;20948;-75
2021/09/27 10:42:04;;;;;;;3.37;0.20;;;;;;;18.41;40.00;101279.14;1714907;82;20988;-76
2021/09/27 10:44:44;;;;;;;0.47;0.30;;;;;;;18.16;40.67;101279.83;1714900;82;20857;-75
2021/09/27 10:47:26;;;;;;;0.40;0.28;;;;;;;17.98;41.58;101274.66;1714522;82;21354;-76
2021/09/27 10:50:11;;;;;;;0.20;0.20;;;;;;;17.82;41.66;101272.41;1715002;82;21478;-79
2021/09/27 10:52:53;;;;;;;0.40;0.10;;;;;;;17.62;41.91;101267.33;1714875;82;21569;-77
2021/09/27 10:55:36;;;;;;;0.15;0.10;;;;;;;17.47;42.44;101279.15;1680088;85;20956;-77
2021/09/27 10:58:09;;;;;;;1.17;0.20;;;;;;;17.34;43.30;101272.17;1680357;85;21011;-76
2021/09/27 11:00:51;;;;;;;0.55;0.20;;;;;;;17.26;43.55;101285.17;1680456;85;21138;-77
2021/09/27 11:03:53;;;;;;;1.42;0.20;;;;;;;17.16;43.27;101278.88;1680196;85;20857;-74
2021/09/27 11:06:32;;;;;;;0.55;0.10;;;;;;;17.04;43.83;101274.55;1680394;85;21562;-75
2021/09/27 11:09:06;;;;;;;1.47;0.15;;;;;;;17.04;45.11;101271.89;1680199;84;20935;-72
2021/09/27 11:12:03;;;;;;;0.40;0.17;;;;;;;17.18;44.70;101268.52;1715558;82;20957;-72
2021/09/27 11:14:41;;;;;;;0.20;0.20;;;;;;;17.52;43.56;101265.91;1679044;84;21164;-71
2021/09/27 11:17:24;;;;;;;0.42;0.20;;;;;;;17.84;43.25;101258.53;1678367;85;20873;-73
2021/09/27 11:20:15;;;;;;;0.20;0.10;;;;;;;18.05;42.24;101269.21;1675842;85;20976;-74
2021/09/27 11:23:01;;;;;;;0.10;0.10;;;;;;;18.19;42.42;101263.63;1672969;85;21632;-72
2021/09/27 11:25:35;;;;;;;0.50;0.10;;;;;;;18.27;42.34;101264.32;1674904;85;20967;-71
2021/09/27 11:28:29;;;;;;;1.25;0.17;;;;;;;18.22;42.13;101267.84;1674821;85;21114;-72
2021/09/27 11:31:32;;;;;;;0.20;0.20;;;;;;;18.13;42.16;101270.77;1675010;85;20877;-72
2021/09/27 11:34:16;;;;;;;1.82;0.20;;;;;;;18.00;42.53;101270.08;1675091;85;20916;-72
2021/09/27 11:36:56;;;;;;;3.72;0.25;;;;;;;17.84;41.95;101269.64;1656737;85;20949;-73
2021/09/27 11:39:43;;;;;;;0.80;0.40;;;;;;;17.66;42.67;101272.76;1673248;85;21043;-73
2021/09/27 11:42:23;;;;;;;0.10;0.10;;;;;;;17.54;43.75;101272.39;1675097;85;21161;-74
2021/09/27 11:45:11;;;;;;;0.50;0.20;;;;;;;17.42;44.52;101274.70;1683908;83;20991;-73
2021/09/27 11:48:05;;;;;;;1.35;0.42;;;;;;;17.31;44.44;101272.39;1686919;85;21046;-73
2021/09/27 11:50:55;;;;;;;0.70;0.30;;;;;;;17.16;44.48;101274.91;1687616;83;20951;-73
2021/09/27 11:53:40;;;;;;;0.62;0.40;;;;;;;17.05;45.08;101273.11;1687030;84;21425;-73
2021/09/27 11:56:30;;;;;;;0.68;0.30;;;;;;;17.04;46.17;101278.52;1686886;85;21095;-74
2021/09/27 11:59:30;;;;;;;0.53;0.35;;;;;;;17.05;45.89;101278.87;1687577;85;21048;-74
2021/09/27 12:02:18;;;;;;;0.15;0.10;;;;;;;17.01;45.36;101278.28;1681578;84;21532;-73
2021/09/27 12:05:17;;;;;;;0.40;0.20;;;;;;;16.91;45.72;101276.80;1722370;82;20987;-72
2021/09/27 12:08:05;;;;;;;0.40;0.20;;;;;;;16.75;45.52;101281.55;1696162;83;20940;-73
2021/09/27 12:10:44;;;;;;;0.65;0.65;;;;;;;16.39;46.04;101278.53;1722862;83;21080;-73
2021/09/27 12:13:22;;;;;;;1.00;0.10;;;;;;;16.03;46.65;101278.92;1722424;82;21030;-72
2021/09/27 12:16:00;;;;;;;4.00;0.72;;;;;;;15.82;47.56;101290.58;1722446;83;21403;-73
2021/09/27 12:18:53;;;;;;;0.13;0.10;;;;;;;15.69;48.19;101292.73;1722289;82;21450;-71
2021/09/27 12:21:35;;;;;;;1.70;0.30;;;;;;;15.64;48.90;101288.25;1714825;82;21366;-74
2021/09/27 12:24:21;;;;;;;1.45;0.17;;;;;;;15.52;49.13;101288.64;1711637;82;21550;-72
2021/09/27 12:26:54;;;;;;;0.42;0.10;;;;;;;15.52;49.13;101288.64;1714735;83;20896;-73
2021/09/27 12:29:23;;;;;;;1.22;0.20;;;;;;;15.50;49.27;101292.36;1714943;82;20873;-71
2021/09/27 12:31:58;;;;;;;1.17;0.40;;;;;;;15.48;49.91;101285.84;1714773;83;20873;-84
2021/09/27 12:34:39;;;;;;;2.25;0.28;;;;;;;15.50;49.42;101287.91;1714770;82;20928;-74